sensor_id;sensor_type;location;lat;lon;timestamp;P1;durP1;ratioP1;P2;durP2;ratioP2
15406;SDS011;7802;51.568;6.364;2022-12-29T00:01:43;1.60;;;1.50;;
15406;SDS011;7802;51.568;6.364;2022-12-29T00:04:10;1.40;;;1.40;;
15406;SDS011;7802;51.568;6.364;2022-12-29T00:06:42;2.00;;;1.60;;
15406;SDS011;7802;51.568;6.364;2022-12-29T00:09:10;1.47;;;1.43;;
15406;SDS011;7802;51.568;6.364;2022-12-29T00:11:37;1.40;;;1.40;;
15406;SDS011;7802;51.568;6.364;2022-12-29T00:14:04;1.77;;;1.67;;
15406;SDS011;7802;51.568;6.364;2022-12-29T00:16:51;1.70;;;1.60;;
15406;SDS011;7802;51.568;6.364;2022-12-29T00:19:18;1.60;;;1.50;;
15406;SDS011;7802;51.568;6.364;2022-12-29T00:22:03;2.17;;;1.97;;
15406;SDS011;7802;51.568;6.364;2022-12-29T00:24:48;1.80;;;1.70;;
15406;SDS011;7802;51.568;6.364;2022-12-29T00:27:33;1.70;;;1.60;;
15406;SDS011;7802;51.568;6.364;2022-12-29T00:30:18;2.03;;;1.83;;
15406;SDS011;7802;51.568;6.364;2022-12-29T00:33:08;1.80;;;1.70;;
15406;SDS011;7802;51.568;6.364;2022-12-29T00:35:57;2.27;;;1.60;;
15406;SDS011;7802;51.568;6.364;2022-12-29T00:38:29;2.57;;;1.83;;
15406;SDS011;7802;51.568;6.364;2022-12-29T00:41:16;2.07;;;1.97;;
15406;SDS011;7802;51.568;6.364;2022-12-29T00:44:01;2.23;;;1.80;;
15406;SDS011;7802;51.568;6.364;2022-12-29T00:46:30;2.73;;;1.90;;
15406;SDS011;7802;51.568;6.364;2022-12-29T00:48:57;1.53;;;1.43;;
15406;SDS011;7802;51.568;6.364;2022-12-29T00:51:43;1.73;;;1.63;;
15406;SDS011;7802;51.568;6.364;2022-12-29T00:54:10;2.37;;;1.83;;
15406;SDS011;7802;51.568;6.364;2022-12-29T00:56:37;1.63;;;1.50;;
15406;SDS011;7802;51.568;6.364;2022-12-29T00:59:05;1.80;;;1.70;;
15406;SDS011;7802;51.568;6.364;2022-12-29T01:01:33;1.43;;;1.43;;
15406;SDS011;7802;51.568;6.364;2022-12-29T01:04:01;1.97;;;1.60;;
15406;SDS011;7802;51.568;6.364;2022-12-29T01:06:30;1.13;;;1.13;;
15406;SDS011;7802;51.568;6.364;2022-12-29T01:08:57;2.03;;;1.23;;
15406;SDS011;7802;51.568;6.364;2022-12-29T01:11:48;1.40;;;1.40;;
15406;SDS011;7802;51.568;6.364;2022-12-29T01:14:15;1.20;;;1.20;;
15406;SDS011;7802;51.568;6.364;2022-12-29T01:16:43;2.20;;;1.20;;
15406;SDS011;7802;51.568;6.364;2022-12-29T01:19:10;1.23;;;1.17;;
15406;SDS011;7802;51.568;6.364;2022-12-29T01:21:37;1.23;;;1.23;;
15406;SDS011;7802;51.568;6.364;2022-12-29T01:24:04;1.17;;;1.17;;
15406;SDS011;7802;51.568;6.364;2022-12-29T01:26:32;1.37;;;1.30;;
15406;SDS011;7802;51.568;6.364;2022-12-29T01:28:59;1.50;;;1.40;;
15406;SDS011;7802;51.568;6.364;2022-12-29T01:31:28;1.20;;;1.20;;
15406;SDS011;7802;51.568;6.364;2022-12-29T01:33:54;1.20;;;1.20;;
15406;SDS011;7802;51.568;6.364;2022-12-29T01:36:21;1.30;;;1.30;;
15406;SDS011;7802;51.568;6.364;2022-12-29T01:38:47;1.17;;;1.17;;
15406;SDS011;7802;51.568;6.364;2022-12-29T01:41:14;2.63;;;1.10;;
15406;SDS011;7802;51.568;6.364;2022-12-29T01:43:43;2.20;;;1.20;;
15406;SDS011;7802;51.568;6.364;2022-12-29T01:46:15;1.33;;;1.20;;
15406;SDS011;7802;51.568;6.364;2022-12-29T01:48:46;1.10;;;1.10;;
15406;SDS011;7802;51.568;6.364;2022-12-29T01:51:14;2.80;;;1.10;;
15406;SDS011;7802;51.568;6.364;2022-12-29T01:53:43;1.87;;;1.10;;
15406;SDS011;7802;51.568;6.364;2022-12-29T01:56:11;1.20;;;1.10;;
15406;SDS011;7802;51.568;6.364;2022-12-29T01:58:43;1.23;;;1.00;;
15406;SDS011;7802;51.568;6.364;2022-12-29T12:45:13;6.03;;;1.63;;
15406;SDS011;7802;51.568;6.364;2022-12-29T12:48:06;4.17;;;1.50;;
15406;SDS011;7802;51.568;6.364;2022-12-29T12:51:52;4.60;;;2.33;;
15406;SDS011;7802;51.568;6.364;2022-12-29T12:58:51;5.37;;;1.90;;
15406;SDS011;7802;51.568;6.364;2022-12-29T13:13:42;7.90;;;1.90;;
15406;SDS011;7802;51.568;6.364;2022-12-29T14:20:25;4.53;;;1.93;;
15406;SDS011;7802;51.568;6.364;2022-12-29T14:27:52;5.87;;;2.00;;
15406;SDS011;7802;51.568;6.364;2022-12-29T17:37:30;5.03;;;1.40;;
15406;SDS011;7802;51.568;6.364;2022-12-29T18:15:32;6.07;;;1.60;;
15406;SDS011;7802;51.568;6.364;2022-12-29T23:16:12;7.37;;;3.07;;
15406;SDS011;7802;51.568;6.364;2022-12-29T23:19:26;14.23;;;3.23;;
15406;SDS011;7802;51.568;6.364;2022-12-29T23:22:42;9.47;;;3.27;;
15406;SDS011;7802;51.568;6.364;2022-12-29T23:26:20;9.17;;;2.90;;
